createdAt,value
2017-10-15T00:00:34.137Z,100986.81
2017-10-15T00:03:01.820Z,100987.27
2017-10-15T00:05:29.487Z,100982.23
2017-10-15T00:07:57.120Z,100982.16
2017-10-15T00:10:24.796Z,100988.67
2017-10-15T00:12:52.459Z,100987.66
2017-10-15T00:15:20.076Z,100986.55
2017-10-15T00:17:47.687Z,100985.24
2017-10-15T00:20:15.359Z,100977.41
2017-10-15T00:22:42.978Z,100976.05
2017-10-15T00:25:10.644Z,100984.12
2017-10-15T00:27:38.311Z,100985.58
2017-10-15T00:30:05.927Z,100987.86
2017-10-15T00:32:33.611Z,100988.27
2017-10-15T00:35:01.293Z,100977.25
2017-10-15T00:37:28.972Z,100978.78
2017-10-15T00:39:56.587Z,100979.73
2017-10-15T00:42:24.251Z,100980.80
2017-10-15T00:44:51.880Z,100983.33
2017-10-15T00:47:19.547Z,100989.42
2017-10-15T00:49:47.216Z,100996.92
2017-10-15T00:52:14.892Z,100992.44
2017-10-15T00:54:42.509Z,100992.11
2017-10-15T00:57:10.194Z,100997.48
2017-10-15T00:59:37.836Z,100987.84
2017-10-15T01:02:05.456Z,100992.02
2017-10-15T01:04:33.115Z,100999.02
2017-10-15T01:07:00.736Z,101002.02
2017-10-15T01:09:28.418Z,101005.27
2017-10-15T01:11:56.144Z,101009.13
2017-10-15T01:14:23.750Z,101004.67
2017-10-15T01:16:51.355Z,101012.48
2017-10-15T01:19:19.024Z,101017.06
2017-10-15T01:21:46.655Z,101019.19
2017-10-15T01:24:14.335Z,101023.00
2017-10-15T01:26:42.010Z,101020.06
2017-10-15T01:29:09.756Z,101020.74
2017-10-15T01:31:37.438Z,101017.98
2017-10-15T01:34:05.199Z,101025.48
2017-10-15T01:36:32.844Z,101028.52
2017-10-15T01:39:00.531Z,101031.91
2017-10-15T01:41:28.203Z,101026.05
2017-10-15T01:43:55.827Z,101033.23
2017-10-15T01:46:23.508Z,101031.33
2017-10-15T01:48:51.176Z,101032.24
2017-10-15T01:51:18.868Z,101035.11
2017-10-15T01:53:46.492Z,101024.37
2017-10-15T01:56:14.219Z,101032.14
2017-10-15T01:58:41.850Z,101029.92
2017-10-15T02:01:09.458Z,101029.46
2017-10-15T02:03:37.126Z,101035.02
2017-10-15T02:06:04.761Z,101044.35
2017-10-15T02:08:32.379Z,101039.61
2017-10-15T02:11:00.099Z,101041.59
2017-10-15T02:13:27.716Z,101049.97
2017-10-15T02:15:55.412Z,101046.19
2017-10-15T02:18:23.079Z,101044.78
2017-10-15T02:20:50.695Z,101052.77
2017-10-15T02:23:18.318Z,101056.23
2017-10-15T02:25:45.987Z,101060.73
2017-10-15T02:28:13.602Z,101062.36
2017-10-15T02:30:41.217Z,101060.87
2017-10-15T02:33:08.887Z,101061.30
2017-10-15T02:35:36.507Z,101067.27
2017-10-15T02:38:04.216Z,101069.68
2017-10-15T02:40:31.895Z,101069.71
2017-10-15T02:42:59.567Z,101071.55
2017-10-15T02:45:27.253Z,101074.17
2017-10-15T02:47:54.940Z,101071.55
2017-10-15T02:50:22.553Z,101065.61
2017-10-15T02:52:50.250Z,101061.65
2017-10-15T02:55:17.915Z,101062.07
2017-10-15T02:57:45.527Z,101065.19
2017-10-15T03:00:13.126Z,101064.77
2017-10-15T03:02:40.783Z,101060.55
2017-10-15T03:05:08.419Z,101057.51
2017-10-15T03:07:36.052Z,101060.27
2017-10-15T03:10:03.735Z,101055.24
2017-10-15T03:12:31.355Z,101060.48
2017-10-15T03:14:58.971Z,101056.88
2017-10-15T03:17:26.636Z,101061.01
2017-10-15T03:19:54.311Z,101054.95
2017-10-15T03:22:21.926Z,101047.81
2017-10-15T03:24:49.635Z,101049.76
2017-10-15T03:27:17.251Z,101039.25
2017-10-15T03:29:44.925Z,101036.20
2017-10-15T03:32:12.591Z,101032.70
2017-10-15T03:34:40.207Z,101028.03
2017-10-15T03:37:07.819Z,101035.73
2017-10-15T03:39:35.482Z,101038.92
2017-10-15T03:42:03.164Z,101039.38
2017-10-15T03:44:30.845Z,101047.05
2017-10-15T03:46:58.519Z,101041.88
2017-10-15T03:49:26.188Z,101042.30
2017-10-15T03:51:53.817Z,101043.64
2017-10-15T03:54:21.555Z,101043.99
2017-10-15T03:56:49.172Z,101050.58
2017-10-15T03:59:16.804Z,101048.67
2017-10-15T04:01:44.475Z,101057.06
2017-10-15T04:04:12.083Z,101061.03
2017-10-15T04:06:39.692Z,101065.48
2017-10-15T04:09:07.368Z,101072.00
2017-10-15T04:11:34.991Z,101079.93
2017-10-15T04:14:02.660Z,101075.47
2017-10-15T04:16:30.391Z,101077.48
2017-10-15T04:18:58.071Z,101087.86
2017-10-15T04:21:25.704Z,101086.80
2017-10-15T04:23:53.451Z,101084.17
2017-10-15T04:26:21.126Z,101088.56
2017-10-15T04:28:48.795Z,101093.95
2017-10-15T04:31:16.479Z,101091.44
2017-10-15T04:33:44.144Z,101086.58
2017-10-15T04:36:11.831Z,101089.25
2017-10-15T04:38:39.517Z,101089.38
2017-10-15T04:41:07.188Z,101090.94
2017-10-15T04:43:35.343Z,101091.84
2017-10-15T04:46:03.003Z,101088.66
2017-10-15T04:48:30.679Z,101082.23
2017-10-15T04:50:58.294Z,101082.38
2017-10-15T04:53:25.968Z,101086.74
2017-10-15T04:55:53.587Z,101093.58
2017-10-15T04:58:21.212Z,101091.22
2017-10-15T05:00:48.879Z,101091.50
2017-10-15T05:03:16.560Z,101091.49
2017-10-15T05:05:44.241Z,101097.20
2017-10-15T05:08:11.905Z,101101.77
2017-10-15T05:10:39.518Z,101104.47
2017-10-15T05:13:07.199Z,101109.30
2017-10-15T05:15:34.960Z,101113.20
2017-10-15T05:18:02.648Z,101106.39
2017-10-15T05:20:30.261Z,101114.05
2017-10-15T05:22:57.925Z,101108.34
2017-10-15T05:25:25.543Z,101109.34
2017-10-15T05:27:53.151Z,101120.61
2017-10-15T05:30:20.831Z,101118.63
2017-10-15T05:32:48.517Z,101124.86
2017-10-15T05:35:16.146Z,101124.54
2017-10-15T05:37:43.819Z,101128.48
2017-10-15T05:40:11.427Z,101136.11
2017-10-15T05:42:39.050Z,101141.56
2017-10-15T05:45:06.734Z,101144.72
2017-10-15T05:47:34.368Z,101146.60
2017-10-15T05:50:01.999Z,101141.70
2017-10-15T05:52:29.684Z,101150.41
2017-10-15T05:54:57.307Z,101149.63
2017-10-15T05:57:24.918Z,101149.13
2017-10-15T05:59:52.588Z,101142.52
2017-10-15T06:02:20.272Z,101131.52
2017-10-15T06:04:47.946Z,101135.03
2017-10-15T06:07:15.631Z,101146.59
2017-10-15T06:09:43.372Z,101158.44
2017-10-15T06:12:11.007Z,101155.94
2017-10-15T06:14:38.749Z,101161.27
2017-10-15T06:17:06.434Z,101164.79
2017-10-15T06:19:34.205Z,101162.47
2017-10-15T06:22:01.876Z,101163.99
2017-10-15T06:24:29.499Z,101163.41
2017-10-15T06:26:57.119Z,101169.88
2017-10-15T06:29:24.787Z,101165.15
2017-10-15T06:31:52.467Z,101174.88
2017-10-15T06:34:20.080Z,101184.12
2017-10-15T06:36:47.744Z,101179.20
2017-10-15T06:39:15.356Z,101183.14
2017-10-15T06:41:42.963Z,101180.58
2017-10-15T06:44:10.627Z,101181.56
2017-10-15T06:46:38.254Z,101176.34
2017-10-15T06:49:05.884Z,101178.70
2017-10-15T06:51:33.624Z,101169.33
2017-10-15T06:54:01.299Z,101168.17
2017-10-15T06:56:28.911Z,101171.78
2017-10-15T06:58:56.571Z,101163.91
2017-10-15T07:01:24.195Z,101165.93
2017-10-15T07:03:51.865Z,101170.88
2017-10-15T07:06:19.529Z,101171.86
2017-10-15T07:08:47.158Z,101180.25
2017-10-15T07:11:14.840Z,101178.14
2017-10-15T07:13:42.512Z,101180.81
2017-10-15T07:16:10.215Z,101185.37
2017-10-15T07:18:37.834Z,101198.92
2017-10-15T07:21:05.497Z,101194.46
2017-10-15T07:23:33.122Z,101201.35
2017-10-15T07:26:00.792Z,101199.94
2017-10-15T07:28:28.507Z,101210.34
2017-10-15T07:30:56.179Z,101207.64
2017-10-15T07:33:23.844Z,101207.22
2017-10-15T07:35:51.527Z,101203.70
2017-10-15T07:38:19.144Z,101197.55
2017-10-15T07:40:46.769Z,101197.91
2017-10-15T07:43:14.497Z,101191.33
2017-10-15T07:45:42.115Z,101199.56
2017-10-15T07:48:09.804Z,101190.83
2017-10-15T07:50:37.466Z,101184.14
2017-10-15T07:53:05.140Z,101182.59
2017-10-15T07:55:32.755Z,101184.62
2017-10-15T07:58:00.484Z,101187.53
2017-10-15T08:00:28.123Z,101184.86
2017-10-15T08:02:55.740Z,101183.50
2017-10-15T08:05:23.471Z,101181.43
2017-10-15T08:07:51.092Z,101180.81
2017-10-15T08:10:18.732Z,101187.82
2017-10-15T08:12:46.451Z,101194.36
2017-10-15T08:15:14.067Z,101187.64
2017-10-15T08:17:41.682Z,101193.91
2017-10-15T08:20:09.355Z,101195.84
2017-10-15T08:22:37.035Z,101195.26
2017-10-15T08:25:04.651Z,101190.27
2017-10-15T08:27:32.320Z,101190.11
2017-10-15T08:29:59.928Z,101187.36
2017-10-15T08:32:27.560Z,101180.59
2017-10-15T08:34:55.271Z,101160.47
2017-10-15T08:37:22.897Z,101148.30
2017-10-15T08:39:50.533Z,101145.06
2017-10-15T08:42:18.212Z,101151.59
2017-10-15T08:44:45.972Z,101149.31
2017-10-15T08:47:13.591Z,101147.94
2017-10-15T08:49:41.308Z,101138.76
2017-10-15T08:52:08.975Z,101135.39
2017-10-15T08:54:36.593Z,101126.19
2017-10-15T08:57:04.375Z,101129.23
2017-10-15T08:59:32.041Z,101145.41
2017-10-15T09:01:59.677Z,101149.30
2017-10-15T09:04:27.360Z,101149.48
2017-10-15T09:06:55.045Z,101144.10
2017-10-15T09:09:22.692Z,101161.90
2017-10-15T09:11:50.356Z,101159.21
2017-10-15T09:14:17.988Z,101155.26
2017-10-15T09:16:45.615Z,101158.39
2017-10-15T09:19:13.349Z,101154.17
2017-10-15T09:21:41.019Z,101147.83
2017-10-15T09:24:08.627Z,101151.57
2017-10-15T09:26:36.287Z,101147.94
2017-10-15T09:29:03.904Z,101148.31
2017-10-15T09:31:31.514Z,101145.28
2017-10-15T09:33:59.175Z,101149.05
2017-10-15T09:36:26.839Z,101139.61
2017-10-15T09:38:54.456Z,101138.22
2017-10-15T09:41:22.173Z,101130.86
2017-10-15T09:43:49.790Z,101125.77
2017-10-15T09:46:17.394Z,101120.70
2017-10-15T09:48:45.116Z,101121.41
2017-10-15T09:51:12.716Z,101118.61
2017-10-15T09:53:40.323Z,101115.38
2017-10-15T09:56:07.967Z,101115.95
2017-10-15T09:58:35.580Z,101110.90
2017-10-15T10:01:03.252Z,101104.94
2017-10-15T10:03:30.972Z,101104.92
2017-10-15T10:05:58.630Z,101113.77
2017-10-15T10:08:26.291Z,101098.77
2017-10-15T10:10:53.959Z,101105.09
2017-10-15T10:13:21.571Z,101104.34
2017-10-15T10:15:49.183Z,101107.15
2017-10-15T10:18:16.843Z,101099.52
2017-10-15T10:20:44.455Z,101090.26
2017-10-15T10:23:12.063Z,101094.27
2017-10-15T10:25:39.779Z,101083.91
2017-10-15T10:28:07.395Z,101071.80
2017-10-15T10:30:35.003Z,101069.25
2017-10-15T10:33:02.691Z,101068.14
2017-10-15T10:35:30.307Z,101073.79
2017-10-15T10:37:57.964Z,101052.28
2017-10-15T10:40:25.628Z,101050.05
2017-10-15T10:42:53.304Z,101046.07
2017-10-15T10:45:20.919Z,101044.27
2017-10-15T10:47:48.567Z,101032.84
2017-10-15T10:50:16.237Z,101030.69
2017-10-15T10:52:43.835Z,101031.78
2017-10-15T10:55:11.482Z,101025.19
2017-10-15T10:57:39.091Z,101020.81
2017-10-15T11:00:06.706Z,101029.95
2017-10-15T11:02:34.356Z,101025.21
2017-10-15T11:05:01.988Z,101023.95
2017-10-15T11:07:29.608Z,101018.25
2017-10-15T11:09:57.275Z,101012.27
2017-10-15T11:12:24.952Z,101014.05
2017-10-15T11:14:52.556Z,101007.77
2017-10-15T11:17:20.210Z,101002.78
2017-10-15T11:19:47.831Z,100997.38
2017-10-15T11:22:15.510Z,100996.03
2017-10-15T11:24:43.228Z,101001.10
2017-10-15T11:27:10.831Z,100993.28
2017-10-15T11:29:38.435Z,100991.75
2017-10-15T11:32:06.164Z,100990.29
2017-10-15T11:34:33.771Z,100980.84
2017-10-15T11:37:01.396Z,100978.48
2017-10-15T11:39:29.112Z,100975.09
2017-10-15T11:41:56.791Z,100983.56
2017-10-15T11:44:24.454Z,100981.70
2017-10-15T11:46:52.108Z,100969.34
2017-10-15T11:49:19.784Z,100971.11
2017-10-15T11:51:47.415Z,100964.89
2017-10-15T11:54:15.088Z,100958.87
2017-10-15T11:56:42.691Z,100961.18
2017-10-15T11:59:10.356Z,100957.50
2017-10-15T12:01:38.020Z,100953.91
2017-10-15T12:04:05.623Z,100957.77
2017-10-15T12:06:33.227Z,100950.20
2017-10-15T12:09:00.943Z,100947.83
2017-10-15T12:11:28.555Z,100940.20
2017-10-15T12:13:56.294Z,100936.69
2017-10-15T12:16:23.954Z,100932.25
2017-10-15T12:18:51.671Z,100927.83
2017-10-15T12:21:19.339Z,100921.83
2017-10-15T12:23:46.995Z,100917.06
2017-10-15T12:26:14.615Z,100919.66
2017-10-15T12:28:42.293Z,100921.99
2017-10-15T12:31:10.018Z,100922.34
2017-10-15T12:33:37.694Z,100922.26
2017-10-15T12:36:05.351Z,100925.45
2017-10-15T12:38:33.035Z,100931.45
2017-10-15T12:41:00.643Z,100925.58
2017-10-15T12:43:28.307Z,100928.05
2017-10-15T12:45:55.959Z,100917.81
2017-10-15T12:48:23.556Z,100913.48
2017-10-15T12:50:51.163Z,100908.09
2017-10-15T12:53:18.906Z,100909.25
2017-10-15T12:55:46.567Z,100899.88
2017-10-15T12:58:14.219Z,100906.38
2017-10-15T13:00:41.884Z,100919.06
2017-10-15T13:03:09.551Z,100914.77
2017-10-15T13:05:37.151Z,100915.06
2017-10-15T13:08:04.855Z,100917.31
2017-10-15T13:10:32.467Z,100909.31
2017-10-15T13:13:00.090Z,100903.88
2017-10-15T13:15:27.840Z,100895.84
2017-10-15T13:17:55.500Z,100891.80
2017-10-15T13:20:23.220Z,100891.83
2017-10-15T13:22:50.999Z,100888.97
2017-10-15T13:25:18.630Z,100881.67
2017-10-15T13:27:46.364Z,100883.02
2017-10-15T13:30:14.042Z,100880.47
2017-10-15T13:32:41.660Z,100879.77
2017-10-15T13:35:09.341Z,100878.36
2017-10-15T13:37:36.990Z,100884.55
2017-10-15T13:40:04.643Z,100880.55
2017-10-15T13:42:32.265Z,100883.80
2017-10-15T13:44:59.935Z,100876.69
2017-10-15T13:47:27.541Z,100887.63
2017-10-15T13:49:55.212Z,100889.31
2017-10-15T13:52:22.948Z,100890.15
2017-10-15T13:54:50.555Z,100886.66
2017-10-15T13:57:18.150Z,100884.93
2017-10-15T13:59:45.872Z,100882.98
2017-10-15T14:02:13.600Z,100876.53
2017-10-15T14:04:41.262Z,100872.66
2017-10-15T14:07:08.988Z,100874.63
2017-10-15T14:09:36.651Z,100878.77
2017-10-15T14:12:04.271Z,100871.22
2017-10-15T14:14:32.055Z,100862.20
2017-10-15T14:16:59.676Z,100868.94
2017-10-15T14:19:27.356Z,100867.49
2017-10-15T14:21:55.031Z,100865.48
2017-10-15T14:24:22.691Z,100860.80
2017-10-15T14:26:50.315Z,100864.63
2017-10-15T14:29:17.973Z,100852.22
2017-10-15T14:31:45.586Z,100857.17
2017-10-15T14:34:13.207Z,100846.70
2017-10-15T14:36:40.911Z,100849.59
2017-10-15T14:39:08.585Z,100853.38
2017-10-15T14:41:36.262Z,100844.08
2017-10-15T14:44:03.933Z,100844.43
2017-10-15T14:46:31.556Z,100844.81
2017-10-15T14:48:59.183Z,100844.09
2017-10-15T14:51:26.920Z,100848.21
2017-10-15T14:53:54.611Z,100854.24
2017-10-15T14:56:22.289Z,100856.00
2017-10-15T14:58:50.015Z,100846.17
2017-10-15T15:01:17.697Z,100847.77
2017-10-15T15:03:45.427Z,100844.86
2017-10-15T15:06:13.303Z,100847.77
2017-10-15T15:08:41.039Z,100838.45
2017-10-15T15:11:08.707Z,100833.30
2017-10-15T15:13:36.444Z,100840.22
2017-10-15T15:16:04.136Z,100832.19
2017-10-15T15:18:31.808Z,100830.19
2017-10-15T15:20:59.555Z,100826.95
2017-10-15T15:23:27.171Z,100835.34
2017-10-15T15:25:54.844Z,100855.35
2017-10-15T15:28:22.519Z,100848.27
2017-10-15T15:30:50.195Z,100860.98
2017-10-15T15:33:18.756Z,100861.50
2017-10-15T15:35:46.427Z,100868.22
2017-10-15T15:38:14.103Z,100870.96
2017-10-15T15:40:41.722Z,100863.70
2017-10-15T15:43:09.384Z,100862.94
2017-10-15T15:45:37.028Z,100864.63
2017-10-15T15:48:04.642Z,100869.52
2017-10-15T15:50:32.410Z,100866.63
2017-10-15T15:53:00.140Z,100862.61
2017-10-15T15:55:27.747Z,100856.61
2017-10-15T15:57:55.416Z,100857.00
2017-10-15T16:00:23.083Z,100853.20
2017-10-15T16:02:50.743Z,100857.87
2017-10-15T16:05:18.410Z,100867.06
2017-10-15T16:07:46.026Z,100875.30
2017-10-15T16:10:13.647Z,100876.05
2017-10-15T16:12:41.340Z,100883.31
2017-10-15T16:15:09.052Z,100880.59
2017-10-15T16:17:36.687Z,100879.19
2017-10-15T16:20:04.356Z,100880.94
2017-10-15T16:22:31.989Z,100893.94
2017-10-15T16:24:59.671Z,100898.88
2017-10-15T16:27:27.387Z,100901.19
2017-10-15T16:29:55.085Z,100896.35
2017-10-15T16:32:22.691Z,100908.64
2017-10-15T16:34:50.428Z,100897.62
2017-10-15T16:37:18.051Z,100888.77
2017-10-15T16:39:45.664Z,100879.81
2017-10-15T16:42:13.392Z,100879.58
2017-10-15T16:44:41.063Z,100881.72
2017-10-15T16:47:08.716Z,100886.03
2017-10-15T16:49:36.435Z,100881.34
2017-10-15T16:52:04.059Z,100881.52
2017-10-15T16:54:31.731Z,100894.86
2017-10-15T16:56:59.399Z,100891.08
2017-10-15T16:59:27.011Z,100896.72
2017-10-15T17:01:54.735Z,100901.82
2017-10-15T17:04:22.407Z,100904.58
2017-10-15T17:06:50.103Z,100916.22
2017-10-15T17:09:18.399Z,100915.91
2017-10-15T17:11:46.071Z,100918.64
2017-10-15T17:14:13.702Z,100926.02
2017-10-15T17:16:41.375Z,100928.25
2017-10-15T17:19:09.106Z,100928.41
2017-10-15T17:21:36.835Z,100932.94
2017-10-15T17:24:04.456Z,100930.30
2017-10-15T17:26:32.170Z,100930.33
2017-10-15T17:28:59.791Z,100931.60
2017-10-15T17:31:27.504Z,100936.45
2017-10-15T17:33:55.271Z,100930.55
2017-10-15T17:36:22.944Z,100939.84
2017-10-15T17:38:50.699Z,100949.39
2017-10-15T17:41:18.415Z,100947.26
2017-10-15T17:43:46.068Z,100950.23
2017-10-15T17:46:13.687Z,100945.84
2017-10-15T17:48:41.375Z,100948.01
2017-10-15T17:51:09.067Z,100955.23
2017-10-15T17:53:36.743Z,100950.72
2017-10-15T17:56:04.415Z,100956.78
2017-10-15T17:58:32.099Z,100960.67
2017-10-15T18:00:59.867Z,100956.27
2017-10-15T18:03:27.563Z,100959.40
2017-10-15T18:05:55.262Z,100961.27
2017-10-15T18:08:22.903Z,100960.52
2017-10-15T18:10:50.623Z,100954.22
2017-10-15T18:13:18.307Z,100946.44
2017-10-15T18:15:45.982Z,100946.28
2017-10-15T18:18:13.650Z,100951.77
2017-10-15T18:20:41.306Z,100962.30
2017-10-15T18:23:08.979Z,100967.27
2017-10-15T18:25:36.674Z,100963.62
2017-10-15T18:28:04.302Z,100970.15
2017-10-15T18:30:31.984Z,100962.08
2017-10-15T18:32:59.699Z,100963.88
2017-10-15T18:35:27.306Z,100964.05
2017-10-15T18:37:54.939Z,100956.91
2017-10-15T18:40:22.654Z,100956.92
2017-10-15T18:42:50.331Z,100953.80
2017-10-15T18:45:17.943Z,100949.91
2017-10-15T18:47:45.671Z,100946.14
2017-10-15T18:50:13.317Z,100946.77
2017-10-15T18:52:40.949Z,100945.37
2017-10-15T18:55:08.627Z,100941.14
2017-10-15T18:57:36.308Z,100934.79
2017-10-15T19:00:03.987Z,100928.45
2017-10-15T19:02:31.706Z,100934.12
2017-10-15T19:04:59.399Z,100934.15
2017-10-15T19:07:27.028Z,100934.70
2017-10-15T19:09:54.755Z,100926.55
2017-10-15T19:12:22.372Z,100933.64
2017-10-15T19:14:49.983Z,100926.07
2017-10-15T19:17:17.702Z,100925.69
2017-10-15T19:19:45.376Z,100915.67
2017-10-15T19:22:13.048Z,100918.48
2017-10-15T19:24:40.809Z,100920.58
2017-10-15T19:27:08.453Z,100914.87
2017-10-15T19:29:36.156Z,100912.05
2017-10-15T19:32:03.911Z,100911.33
2017-10-15T19:34:31.588Z,100907.08
2017-10-15T19:36:59.252Z,100912.70
2017-10-15T19:39:26.919Z,100914.63
2017-10-15T19:41:54.543Z,100915.94
2017-10-15T19:44:22.160Z,100925.48
2017-10-15T19:46:49.862Z,100934.62
2017-10-15T19:49:17.475Z,100943.47
2017-10-15T19:51:45.091Z,100945.80
2017-10-15T19:54:12.807Z,100936.81
2017-10-15T19:56:40.423Z,100921.16
2017-10-15T19:59:08.039Z,100926.12
2017-10-15T20:01:35.768Z,100936.13
2017-10-15T20:04:03.395Z,100947.17
2017-10-15T20:06:31.060Z,100953.56
2017-10-15T20:08:58.727Z,100958.67
2017-10-15T20:11:26.415Z,100953.16
2017-10-15T20:13:54.027Z,100963.07
2017-10-15T20:16:21.759Z,100965.03
2017-10-15T20:18:49.403Z,100961.94
2017-10-15T20:21:17.127Z,100973.02
2017-10-15T20:23:44.892Z,100968.20
2017-10-15T20:26:12.572Z,100965.06
2017-10-15T20:28:40.239Z,100970.47
2017-10-15T20:31:07.935Z,100964.95
2017-10-15T20:33:35.563Z,100972.09
2017-10-15T20:36:03.233Z,100957.82
2017-10-15T20:38:30.899Z,100960.62
2017-10-15T20:40:58.511Z,100951.24
2017-10-15T20:43:26.126Z,100950.70
2017-10-15T20:45:53.859Z,100953.72
2017-10-15T20:48:21.479Z,100957.12
2017-10-15T20:50:49.155Z,100966.56
2017-10-15T20:53:16.876Z,100961.08
2017-10-15T20:55:44.547Z,100962.27
2017-10-15T20:58:12.163Z,100968.06
2017-10-15T21:00:39.888Z,100974.51
2017-10-15T21:03:07.508Z,100967.44
2017-10-15T21:05:35.240Z,100968.72
2017-10-15T21:08:02.899Z,100963.14
2017-10-15T21:10:30.519Z,100964.45
2017-10-15T21:12:58.196Z,100966.74
2017-10-15T21:15:25.859Z,100966.19
2017-10-15T21:17:53.465Z,100973.64
2017-10-15T21:20:21.091Z,100973.93
2017-10-15T21:22:48.807Z,100976.69
2017-10-15T21:25:16.491Z,100980.87
2017-10-15T21:27:44.169Z,100981.72
2017-10-15T21:30:11.901Z,100979.05
2017-10-15T21:32:39.515Z,100986.23
2017-10-15T21:35:07.152Z,100986.00
2017-10-15T21:37:34.827Z,100997.41
2017-10-15T21:40:02.536Z,100983.66
2017-10-15T21:42:30.207Z,100985.55
2017-10-15T21:44:57.939Z,100979.72
2017-10-15T21:47:25.563Z,100984.34
2017-10-15T21:49:53.245Z,100990.67
2017-10-15T21:52:20.918Z,100997.27
2017-10-15T21:54:48.592Z,100994.59
2017-10-15T21:57:16.218Z,100990.13
2017-10-15T21:59:43.948Z,100995.17
2017-10-15T22:02:11.564Z,100992.89
2017-10-15T22:04:39.245Z,100988.19
2017-10-15T22:07:07.031Z,100988.94
2017-10-15T22:09:34.671Z,100989.70
2017-10-15T22:12:02.294Z,100998.34
2017-10-15T22:14:30.017Z,100988.37
2017-10-15T22:16:57.700Z,100992.33
2017-10-15T22:19:25.316Z,100976.81
2017-10-15T22:21:58.400Z,100981.38
2017-10-15T22:24:26.090Z,100982.97
2017-10-15T22:26:53.707Z,100990.83
2017-10-15T22:29:21.377Z,100984.08
2017-10-15T22:31:49.060Z,100983.91
2017-10-15T22:34:16.671Z,100971.50
2017-10-15T22:36:44.411Z,100960.27
2017-10-15T22:39:12.030Z,100959.17
2017-10-15T22:41:39.655Z,100963.39
2017-10-15T22:44:07.383Z,100968.61
2017-10-15T22:46:34.999Z,100965.09
2017-10-15T22:49:02.631Z,100962.05
2017-10-15T22:51:30.344Z,100962.37
2017-10-15T22:53:57.950Z,100972.43
2017-10-15T22:56:25.571Z,100977.57
2017-10-15T22:58:53.327Z,100981.64
2017-10-15T23:01:20.999Z,100987.02
2017-10-15T23:03:48.676Z,100998.48
2017-10-15T23:06:16.341Z,101001.41
2017-10-15T23:08:43.963Z,101000.67
2017-10-15T23:11:11.581Z,101004.27
2017-10-15T23:13:39.255Z,101002.84
2017-10-15T23:16:06.871Z,101008.55
2017-10-15T23:18:34.543Z,101011.77
2017-10-15T23:21:02.211Z,101007.16
2017-10-15T23:23:29.820Z,101014.08
2017-10-15T23:25:57.498Z,101014.16
2017-10-15T23:28:25.155Z,101017.28
2017-10-15T23:30:52.768Z,101021.99
2017-10-15T23:33:20.383Z,101027.55
2017-10-15T23:35:48.108Z,101025.59
2017-10-15T23:38:15.718Z,101036.47
2017-10-15T23:40:43.327Z,101042.77
2017-10-15T23:43:11.003Z,101050.44
2017-10-15T23:45:38.697Z,101055.33
2017-10-15T23:48:06.327Z,101064.77
2017-10-15T23:50:34.019Z,101059.03
2017-10-15T23:53:01.640Z,101059.27
2017-10-15T23:55:29.270Z,101060.03
2017-10-15T23:57:56.940Z,101065.73
